Time;durP1;ratioP1;P1;durP2;ratioP2;P2;SDS_P1;SDS_P2;PMS_P1;PMS_P2;Temp;Humidity;BMP_temperature;BMP_pressure;BME280_temperature;BME280_humidity;BME280_pressure;Samples;Min_cycle;Max_cycle;Signal;HPM_P1;HPM_P2
2023/01/26 00:01:28;;;;;;;;;;;;;;;3.65;100.00;98444.34;5095779;28;19925;-63
2023/01/26 00:03:55;;;;;;;;;;;;;;;3.45;100.00;98440.09;5095632;28;19992;-63
2023/01/26 00:06:22;;;;;;;;;;;;;;;3.35;100.00;98442.34;5102863;28;19940;-62
2023/01/26 00:08:49;;;;;;;;;;;;;;;2.99;100.00;98432.19;5111591;28;19932;-64
2023/01/26 00:11:17;;;;;;;;;;;;;;;3.39;100.00;98427.72;5109879;28;20238;-63
2023/01/26 00:13:44;;;;;;;;;;;;;;;3.56;100.00;98413.88;5106418;28;19924;-62
2023/01/26 00:16:13;;;;;;;;;;;;;;;3.83;100.00;98422.56;5097284;28;19928;-63
2023/01/26 00:18:40;;;;;;;;;;;;;;;3.96;100.00;98425.16;5094459;28;19996;-63
2023/01/26 00:21:07;;;;;;;;;;;;;;;3.40;100.00;98419.63;5108073;28;19925;-63
2023/01/26 00:23:34;;;;;;;;;;;;;;;3.54;100.00;98421.22;5103685;28;19925;-62
2023/01/26 00:26:01;;;;;;;;;;;;;;;3.79;100.00;98418.72;5098879;28;19924;-63
2023/01/26 00:28:28;;;;;;;;;;;;;;;3.93;100.00;98420.28;5103897;28;19953;-63
2023/01/26 00:30:54;;;;;;;;;;;;;;;4.03;100.00;98419.84;5095243;28;19925;-63
2023/01/26 00:33:22;;;;;;;;;;;;;;;4.01;100.00;98412.16;5105208;28;20040;-63
2023/01/26 00:35:53;;;;;;;;;;;;;;;4.09;100.00;98409.28;5101506;28;19924;-63
2023/01/26 00:38:20;;;;;;;;;;;;;;;4.11;100.00;98401.16;5102470;28;19928;-63
2023/01/26 00:40:46;;;;;;;;;;;;;;;4.20;100.00;98408.63;5095618;28;19931;-63
2023/01/26 00:43:13;;;;;;;;;;;;;;;4.28;100.00;98403.09;5100217;28;19963;-63
2023/01/26 00:45:39;;;;;;;;;;;;;;;4.32;100.00;98404.31;5098476;28;19925;-63
2023/01/26 00:48:06;;;;;;;;;;;;;;;4.37;100.00;98401.00;5113558;28;19920;-63
2023/01/26 00:50:34;;;;;;;;;;;;;;;4.42;100.00;98398.56;5094534;28;20066;-63
2023/01/26 00:53:01;;;;;;;;;;;;;;;4.32;100.00;98384.97;5094861;28;19928;-63
2023/01/26 00:55:31;;;;;;;;;;;;;;;4.02;100.00;98395.28;5086279;28;19978;-63
2023/01/26 00:57:57;;;;;;;;;;;;;;;3.97;100.00;98389.81;5098252;28;19925;-62
2023/01/26 01:00:24;;;;;;;;;;;;;;;3.39;100.00;98396.84;5105355;28;19930;-64
2023/01/26 01:02:51;;;;;;;;;;;;;;;3.11;100.00;98393.63;5106582;28;19996;-63
2023/01/26 01:05:17;;;;;;;;;;;;;;;2.80;100.00;98394.22;5113014;28;19987;-64
2023/01/26 01:07:45;;;;;;;;;;;;;;;2.65;100.00;98393.59;5100106;28;19927;-63
2023/01/26 01:10:12;;;;;;;;;;;;;;;2.48;100.00;98387.88;5103986;28;19992;-63
2023/01/26 01:12:38;;;;;;;;;;;;;;;2.53;100.00;98390.75;5100946;28;19920;-63
2023/01/26 01:15:05;;;;;;;;;;;;;;;2.69;100.00;98385.06;5109511;28;19924;-62
2023/01/26 01:17:32;;;;;;;;;;;;;;;2.84;100.00;98384.91;5101111;28;19924;-67
2023/01/26 01:20:01;;;;;;;;;;;;;;;2.81;100.00;98380.03;5101054;28;19966;-62
2023/01/26 01:22:28;;;;;;;;;;;;;;;2.48;100.00;98379.16;5092569;28;19925;-63
2023/01/26 01:24:56;;;;;;;;;;;;;;;2.00;100.00;98381.88;5092448;28;19924;-63
2023/01/26 01:27:22;;;;;;;;;;;;;;;2.03;100.00;98375.41;5092527;28;19928;-62
2023/01/26 01:29:52;;;;;;;;;;;;;;;2.08;100.00;98378.25;5092532;28;19928;-63
2023/01/26 01:32:19;;;;;;;;;;;;;;;2.41;100.00;98381.00;5091552;28;19924;-63
2023/01/26 01:34:47;;;;;;;;;;;;;;;2.82;100.00;98378.19;5094911;28;19921;-62
2023/01/26 01:37:13;;;;;;;;;;;;;;;3.17;100.00;98383.06;5104324;28;19932;-63
2023/01/26 01:39:40;;;;;;;;;;;;;;;3.33;100.00;98371.28;5104378;28;19931;-62
2023/01/26 01:42:08;;;;;;;;;;;;;;;2.90;100.00;98365.63;5103602;28;19924;-63
2023/01/26 01:44:35;;;;;;;;;;;;;;;2.78;100.00;98372.53;5083045;28;19925;-63
2023/01/26 01:47:03;;;;;;;;;;;;;;;2.84;100.00;98368.25;5100448;28;19963;-63
2023/01/26 01:49:30;;;;;;;;;;;;;;;3.06;100.00;98364.41;5100241;28;19925;-63
2023/01/26 01:52:01;;;;;;;;;;;;;;;3.23;100.00;98371.69;5100711;28;19967;-63
2023/01/26 01:54:30;;;;;;;;;;;;;;;3.39;100.00;98364.38;5100637;28;19924;-63
2023/01/26 01:57:00;;;;;;;;;;;;;;;3.60;100.00;98361.47;5099459;28;19932;-63
2023/01/26 01:59:28;;;;;;;;;;;;;;;3.52;100.00;98357.25;5103883;28;19927;-63
2023/01/26 02:01:56;;;;;;;;;;;;;;;3.02;100.00;98356.09;5104293;28;19952;-63
2023/01/26 02:04:24;;;;;;;;;;;;;;;2.85;100.00;98360.13;5101216;28;20039;-63
2023/01/26 02:06:52;;;;;;;;;;;;;;;3.32;100.00;98347.72;5109900;28;19951;-62
2023/01/26 02:12:07;;;;;;;;;;;;;;;3.72;100.00;98336.84;5103374;28;19991;-63
2023/01/26 02:14:35;;;;;;;;;;;;;;;3.81;100.00;98342.69;5082506;28;19950;-63
2023/01/26 02:17:01;;;;;;;;;;;;;;;3.90;100.00;98330.88;5100038;28;19955;-63
2023/01/26 02:19:33;;;;;;;;;;;;;;;3.95;100.00;98331.06;5091505;28;19942;-63
2023/01/26 02:22:04;;;;;;;;;;;;;;;4.05;100.00;98327.97;5090563;28;19924;-63
2023/01/26 02:24:33;;;;;;;;;;;;;;;4.07;100.00;98313.53;5111082;28;20600;-63
2023/01/26 02:27:01;;;;;;;;;;;;;;;4.07;100.00;98316.16;5103177;28;19931;-63
2023/01/26 02:29:28;;;;;;;;;;;;;;;4.10;100.00;98312.28;5091218;28;19924;-63
2023/01/26 02:31:55;;;;;;;;;;;;;;;4.05;100.00;98310.28;5091286;28;19924;-63
2023/01/26 02:34:24;;;;;;;;;;;;;;;3.86;100.00;98313.03;5091043;28;19951;-63
2023/01/26 02:36:56;;;;;;;;;;;;;;;3.59;100.00;98307.84;5103937;28;19921;-63
2023/01/26 02:39:26;;;;;;;;;;;;;;;3.53;100.00;98308.66;5102326;28;19946;-63
2023/01/26 02:44:39;;;;;;;;;;;;;;;2.97;100.00;98311.03;5099188;28;19924;-64
2023/01/26 02:47:10;;;;;;;;;;;;;;;2.93;100.00;98303.72;5081728;28;19921;-62
2023/01/26 02:49:50;;;;;;;;;;;;;;;2.92;100.00;98299.47;5102808;28;19925;-63
2023/01/26 02:52:18;;;;;;;;;;;;;;;2.49;100.00;98302.53;5082808;28;19924;-62
2023/01/26 02:57:28;;;;;;;;;;;;;;;2.95;100.00;98296.41;5114648;28;19928;-63
2023/01/26 02:59:56;;;;;;;;;;;;;;;3.23;100.00;98289.88;5099168;28;19935;-63
2023/01/26 03:02:23;;;;;;;;;;;;;;;3.19;100.00;98295.75;5101851;28;19954;-63
2023/01/26 03:04:49;;;;;;;;;;;;;;;3.16;100.00;98290.91;5105254;28;19935;-62
2023/01/26 03:07:15;;;;;;;;;;;;;;;3.13;100.00;98286.84;5103808;28;19952;-62
2023/01/26 03:09:42;;;;;;;;;;;;;;;2.82;100.00;98284.06;5102532;28;19920;-61
2023/01/26 03:12:08;;;;;;;;;;;;;;;2.63;100.00;98293.59;5101301;28;19932;-62
2023/01/26 03:14:35;;;;;;;;;;;;;;;2.65;100.00;98296.03;5098993;28;19925;-64
2023/01/26 03:17:02;;;;;;;;;;;;;;;3.05;100.00;98297.63;5098906;28;19925;-62
2023/01/26 03:27:43;;;;;;;;;;;;;;;3.55;100.00;98282.88;5090511;28;19987;-63
2023/01/26 03:30:10;;;;;;;;;;;;;;;3.13;100.00;98288.66;5090330;28;19925;-62
2023/01/26 03:32:38;;;;;;;;;;;;;;;2.85;100.00;98286.28;5090116;28;19973;-63
2023/01/26 03:35:05;;;;;;;;;;;;;;;2.73;100.00;98291.38;5098796;28;19947;-63
2023/01/26 03:37:35;;;;;;;;;;;;;;;2.84;100.00;98283.88;5084051;28;19924;-63
2023/01/26 03:56:31;;;;;;;;;;;;;;;3.66;100.00;98262.91;5101417;28;19962;-61
2023/01/26 03:59:06;;;;;;;;;;;;;;;3.80;100.00;98264.50;5100353;28;19935;-61
2023/01/26 04:01:33;;;;;;;;;;;;;;;3.91;100.00;98269.09;5098007;28;19935;-62
2023/01/26 04:09:29;;;;;;;;;;;;;;;3.99;100.00;98271.47;5097800;28;19932;-62
2023/01/26 04:11:56;;;;;;;;;;;;;;;4.04;100.00;98279.59;5097966;28;19943;-62
2023/01/26 04:22:42;;;;;;;;;;;;;;;3.95;100.00;98266.84;5097853;28;19920;-62
2023/01/26 04:25:08;;;;;;;;;;;;;;;3.96;100.00;98274.53;5098680;28;19925;-62
2023/01/26 04:27:35;;;;;;;;;;;;;;;3.79;100.00;98265.50;5101317;28;19967;-62
2023/01/26 04:30:02;;;;;;;;;;;;;;;3.77;100.00;98260.44;5101435;28;20385;-62
2023/01/26 04:32:29;;;;;;;;;;;;;;;3.80;100.00;98249.44;5097664;28;19929;-62
2023/01/26 04:34:56;;;;;;;;;;;;;;;3.91;100.00;98255.88;5101359;28;19950;-63
2023/01/26 04:37:23;;;;;;;;;;;;;;;3.78;100.00;98256.75;5101088;28;19932;-62
2023/01/26 04:39:49;;;;;;;;;;;;;;;3.81;100.00;98261.63;5101180;28;19935;-62
2023/01/26 04:42:15;;;;;;;;;;;;;;;3.91;100.00;98247.97;5099140;28;20346;-62
2023/01/26 04:44:42;;;;;;;;;;;;;;;3.99;100.00;98250.34;5099785;28;19936;-62
2023/01/26 04:47:08;;;;;;;;;;;;;;;4.01;100.00;98247.50;5102194;28;19946;-62
2023/01/26 04:49:35;;;;;;;;;;;;;;;3.79;100.00;98250.47;5086774;28;19931;-62
2023/01/26 04:52:02;;;;;;;;;;;;;;;3.83;100.00;98245.56;5104736;28;19920;-63
2023/01/26 04:54:29;;;;;;;;;;;;;;;3.97;100.00;98241.00;5101320;28;19977;-63
2023/01/26 04:56:55;;;;;;;;;;;;;;;3.96;100.00;98239.41;5101239;28;19924;-62
2023/01/26 04:59:21;;;;;;;;;;;;;;;3.96;100.00;98245.47;5103661;28;19996;-62
2023/01/26 05:01:48;;;;;;;;;;;;;;;4.04;100.00;98242.59;5104853;28;20332;-62
2023/01/26 05:04:14;;;;;;;;;;;;;;;4.01;100.00;98243.03;5102961;28;19931;-62
2023/01/26 05:06:41;;;;;;;;;;;;;;;3.96;100.00;98234.13;5110662;28;19947;-62
2023/01/26 05:09:09;;;;;;;;;;;;;;;3.82;100.00;98233.38;5101899;28;19927;-62
2023/01/26 05:11:36;;;;;;;;;;;;;;;3.81;100.00;98235.19;5104421;28;19984;-62
2023/01/26 05:14:03;;;;;;;;;;;;;;;3.88;100.00;98239.63;5104439;28;19928;-62
2023/01/26 05:16:29;;;;;;;;;;;;;;;3.64;100.00;98246.47;5100651;28;20408;-62
2023/01/26 05:18:55;;;;;;;;;;;;;;;3.72;100.00;98254.16;5099510;28;20015;-62
2023/01/26 05:21:23;;;;;;;;;;;;;;;3.85;100.00;98255.91;5103389;28;19959;-62
2023/01/26 05:23:49;;;;;;;;;;;;;;;3.93;100.00;98256.47;5104268;28;19946;-62
2023/01/26 05:26:17;;;;;;;;;;;;;;;3.73;100.00;98255.78;5102267;28;19946;-63
2023/01/26 05:28:44;;;;;;;;;;;;;;;3.98;100.00;98250.56;5082922;28;19978;-62
2023/01/26 05:31:10;;;;;;;;;;;;;;;4.08;100.00;98254.38;5101720;28;19935;-64
2023/01/26 05:33:37;;;;;;;;;;;;;;;4.10;100.00;98247.03;5104270;28;19967;-63
2023/01/26 05:36:04;;;;;;;;;;;;;;;4.12;100.00;98258.19;5108624;28;19943;-63
2023/01/26 05:38:30;;;;;;;;;;;;;;;4.13;100.00;98262.47;5100342;28;20724;-63
2023/01/26 05:40:56;;;;;;;;;;;;;;;4.17;100.00;98258.38;5100449;28;20036;-63
2023/01/26 05:43:24;;;;;;;;;;;;;;;4.19;100.00;98256.31;5103198;28;19932;-63
2023/01/26 05:45:51;;;;;;;;;;;;;;;4.10;100.00;98249.69;5103903;28;19920;-63
2023/01/26 05:48:18;;;;;;;;;;;;;;;4.13;100.00;98254.53;5101589;28;19955;-63
2023/01/26 05:50:44;;;;;;;;;;;;;;;4.00;100.00;98244.03;5100154;28;19996;-63
2023/01/26 05:53:11;;;;;;;;;;;;;;;3.99;100.00;98244.25;5101163;28;19951;-63
2023/01/26 05:55:37;;;;;;;;;;;;;;;4.05;100.00;98243.41;5103618;28;19924;-63
2023/01/26 05:58:03;;;;;;;;;;;;;;;4.09;100.00;98242.75;5103363;28;19928;-63
2023/01/26 06:00:31;;;;;;;;;;;;;;;4.07;100.00;98238.72;5100015;28;19987;-63
2023/01/26 06:02:57;;;;;;;;;;;;;;;3.85;100.00;98251.44;5100146;28;19947;-63
2023/01/26 06:05:24;;;;;;;;;;;;;;;3.59;100.00;98246.31;5107514;28;19924;-63
2023/01/26 06:07:50;;;;;;;;;;;;;;;3.52;100.00;98259.53;5103407;28;19935;-63
2023/01/26 06:10:17;;;;;;;;;;;;;;;3.56;100.00;98255.44;5101272;28;20041;-63
2023/01/26 06:12:43;;;;;;;;;;;;;;;3.73;100.00;98258.41;5099868;28;19921;-63
2023/01/26 06:15:11;;;;;;;;;;;;;;;3.89;100.00;98252.66;5100470;28;20361;-63
2023/01/26 06:17:39;;;;;;;;;;;;;;;4.01;100.00;98248.31;5103237;28;19930;-63
2023/01/26 06:20:06;;;;;;;;;;;;;;;3.93;100.00;98259.13;5102792;28;19985;-63
2023/01/26 06:22:32;;;;;;;;;;;;;;;3.92;100.00;98257.50;5098284;28;19931;-63
2023/01/26 06:24:58;;;;;;;;;;;;;;;3.77;100.00;98259.63;5099515;28;19924;-63
2023/01/26 06:27:25;;;;;;;;;;;;;;;3.81;100.00;98258.16;5102389;28;19943;-62
2023/01/26 06:29:51;;;;;;;;;;;;;;;3.85;100.00;98256.72;5102967;28;19931;-62
2023/01/26 06:32:17;;;;;;;;;;;;;;;3.84;100.00;98257.75;5100625;28;19967;-62
2023/01/26 06:34:45;;;;;;;;;;;;;;;3.96;100.00;98256.03;5101460;28;19931;-62
2023/01/26 06:37:12;;;;;;;;;;;;;;;3.97;100.00;98252.38;5102626;28;19924;-62
2023/01/26 06:39:40;;;;;;;;;;;;;;;3.83;100.00;98242.94;5102642;28;19935;-62
2023/01/26 06:42:07;;;;;;;;;;;;;;;4.04;100.00;98247.06;5102009;28;19935;-62
2023/01/26 06:44:34;;;;;;;;;;;;;;;4.03;100.00;98248.91;5098984;28;19984;-62
2023/01/26 06:47:00;;;;;;;;;;;;;;;4.05;100.00;98238.94;5098947;28;19931;-63
2023/01/26 06:49:26;;;;;;;;;;;;;;;3.96;100.00;98232.25;5102285;28;19987;-63
2023/01/26 06:51:56;;;;;;;;;;;;;;;3.92;100.00;98239.00;5103012;28;19920;-63
2023/01/26 06:54:23;;;;;;;;;;;;;;;3.94;100.00;98236.97;5099768;28;19963;-63
2023/01/26 06:56:49;;;;;;;;;;;;;;;3.75;100.00;98240.53;5098965;28;19947;-62
2023/01/26 06:59:16;;;;;;;;;;;;;;;3.77;100.00;98236.66;5100496;28;19975;-62
2023/01/26 07:01:44;;;;;;;;;;;;;;;3.79;100.00;98231.97;5102461;28;19920;-62
2023/01/26 07:04:10;;;;;;;;;;;;;;;3.76;100.00;98236.88;5101246;28;19920;-62
2023/01/26 07:06:37;;;;;;;;;;;;;;;3.78;100.00;98242.75;5103071;28;19959;-63
2023/01/26 07:09:05;;;;;;;;;;;;;;;3.67;100.00;98235.50;5097740;28;19939;-63
2023/01/26 07:11:31;;;;;;;;;;;;;;;3.75;100.00;98232.59;5102197;28;20357;-63
2023/01/26 07:13:58;;;;;;;;;;;;;;;3.79;100.00;98228.53;5102166;28;19995;-63
2023/01/26 07:16:24;;;;;;;;;;;;;;;3.85;100.00;98243.53;5098868;28;19925;-62
2023/01/26 07:18:50;;;;;;;;;;;;;;;3.71;100.00;98234.84;5097243;28;19959;-62
2023/01/26 07:21:18;;;;;;;;;;;;;;;3.80;100.00;98240.72;5099944;28;19951;-63
2023/01/26 07:23:44;;;;;;;;;;;;;;;3.88;100.00;98242.28;5101687;28;19962;-63
2023/01/26 07:26:12;;;;;;;;;;;;;;;3.89;100.00;98234.16;5100480;28;19924;-63
2023/01/26 07:28:39;;;;;;;;;;;;;;;3.89;100.00;98228.88;5098152;28;19929;-63
2023/01/26 07:31:06;;;;;;;;;;;;;;;3.89;100.00;98222.78;5098321;28;20014;-63
2023/01/26 07:33:32;;;;;;;;;;;;;;;3.79;100.00;98225.88;5101618;28;19991;-63
2023/01/26 07:35:59;;;;;;;;;;;;;;;3.87;100.00;98235.41;5106240;28;19928;-63
2023/01/26 07:38:27;;;;;;;;;;;;;;;3.85;100.00;98234.78;5098349;28;19931;-63
2023/01/26 07:40:53;;;;;;;;;;;;;;;3.82;100.00;98233.38;5080075;28;19920;-63
2023/01/26 07:43:21;;;;;;;;;;;;;;;3.87;100.00;98222.19;5100273;28;19925;-63
2023/01/26 07:45:49;;;;;;;;;;;;;;;3.82;100.00;98228.09;5101648;28;19950;-63
2023/01/26 07:48:15;;;;;;;;;;;;;;;3.54;100.00;98227.63;5099762;28;19931;-63
2023/01/26 07:50:42;;;;;;;;;;;;;;;3.52;100.00;98235.78;5098224;28;19996;-62
2023/01/26 07:53:11;;;;;;;;;;;;;;;3.52;100.00;98233.13;5098928;28;19925;-62
2023/01/26 07:55:37;;;;;;;;;;;;;;;3.69;100.00;98236.09;5101749;28;19924;-62
2023/01/26 07:58:04;;;;;;;;;;;;;;;3.75;100.00;98233.41;5101289;28;19995;-62
2023/01/26 08:00:31;;;;;;;;;;;;;;;3.65;100.00;98237.53;5097904;28;19988;-62
2023/01/26 08:02:58;;;;;;;;;;;;;;;3.64;100.00;98228.00;5098102;28;19963;-62
2023/01/26 08:05:24;;;;;;;;;;;;;;;3.43;100.00;98244.13;5105468;28;19950;-63
2023/01/26 08:07:51;;;;;;;;;;;;;;;3.37;100.00;98235.22;5101693;28;20003;-64
2023/01/26 08:10:17;;;;;;;;;;;;;;;3.34;100.00;98234.84;5099532;28;19960;-63
2023/01/26 08:12:43;;;;;;;;;;;;;;;3.38;100.00;98238.66;5097879;28;19996;-63
2023/01/26 08:15:10;;;;;;;;;;;;;;;3.44;100.00;98229.91;5098666;28;19967;-62
2023/01/26 08:17:38;;;;;;;;;;;;;;;3.55;100.00;98221.34;5101276;28;19935;-62
2023/01/26 08:20:05;;;;;;;;;;;;;;;3.38;100.00;98236.00;5103925;28;19955;-63
2023/01/26 08:22:31;;;;;;;;;;;;;;;3.26;100.00;98234.03;5101754;28;19931;-63
2023/01/26 08:24:57;;;;;;;;;;;;;;;3.51;100.00;98234.16;5101779;28;20007;-63
2023/01/26 08:27:24;;;;;;;;;;;;;;;3.79;100.00;98233.81;5104644;28;19928;-63
2023/01/26 08:29:50;;;;;;;;;;;;;;;3.85;100.00;98232.13;5105506;28;19954;-62
2023/01/26 08:32:17;;;;;;;;;;;;;;;3.90;100.00;98229.69;5103131;28;19971;-63
2023/01/26 08:34:45;;;;;;;;;;;;;;;3.90;100.00;98229.69;5103550;28;19932;-62
2023/01/26 08:37:11;;;;;;;;;;;;;;;3.89;100.00;98228.88;5086899;28;19924;-62
2023/01/26 08:39:37;;;;;;;;;;;;;;;3.81;100.00;98229.91;5103685;28;19924;-63
2023/01/26 08:42:04;;;;;;;;;;;;;;;3.62;100.00;98228.19;5103676;28;19930;-64
2023/01/26 08:44:30;;;;;;;;;;;;;;;3.57;100.00;98221.91;5083529;28;19958;-63
2023/01/26 08:46:56;;;;;;;;;;;;;;;3.54;100.00;98228.44;5100181;28;19924;-63
2023/01/26 08:49:23;;;;;;;;;;;;;;;3.49;100.00;98227.47;5104087;28;19927;-63
2023/01/26 08:51:51;;;;;;;;;;;;;;;3.69;100.00;98234.25;5104941;28;19931;-64
2023/01/26 08:54:17;;;;;;;;;;;;;;;3.81;100.00;98231.75;5102855;28;19931;-63
2023/01/26 08:56:43;;;;;;;;;;;;;;;3.81;100.00;98229.09;5101359;28;19924;-63
2023/01/26 08:59:10;;;;;;;;;;;;;;;3.85;100.00;98235.59;5102482;28;19925;-63
2023/01/26 09:01:36;;;;;;;;;;;;;;;3.85;100.00;98225.03;5104163;28;19951;-63
2023/01/26 09:04:03;;;;;;;;;;;;;;;3.88;100.00;98224.59;5104997;28;19988;-63
2023/01/26 09:06:31;;;;;;;;;;;;;;;3.36;100.00;98227.50;5106177;28;20030;-63
2023/01/26 09:08:59;;;;;;;;;;;;;;;2.79;100.00;98231.72;5101273;28;19974;-62
2023/01/26 09:11:25;;;;;;;;;;;;;;;2.47;100.00;98241.28;5104308;28;19927;-62
2023/01/26 09:13:55;;;;;;;;;;;;;;;2.72;100.00;98233.56;5104873;28;19924;-63
2023/01/26 09:16:22;;;;;;;;;;;;;;;3.08;100.00;98239.19;5102033;28;19931;-63
2023/01/26 09:18:49;;;;;;;;;;;;;;;3.26;100.00;98238.50;5101339;28;19980;-63
2023/01/26 09:21:15;;;;;;;;;;;;;;;3.43;100.00;98226.47;5085034;28;19975;-64
2023/01/26 09:23:41;;;;;;;;;;;;;;;3.50;100.00;98234.34;5103841;28;19960;-63
2023/01/26 09:26:09;;;;;;;;;;;;;;;3.63;100.00;98229.00;5104456;28;19962;-64
2023/01/26 09:28:36;;;;;;;;;;;;;;;3.45;100.00;98227.06;5101236;28;19935;-63
2023/01/26 09:31:03;;;;;;;;;;;;;;;3.32;100.00;98221.00;5100700;28;19932;-63
2023/01/26 09:33:29;;;;;;;;;;;;;;;3.14;100.00;98230.44;5092493;28;19925;-63
2023/01/26 09:35:56;;;;;;;;;;;;;;;3.06;100.00;98216.66;5104358;28;19928;-63
2023/01/26 09:38:22;;;;;;;;;;;;;;;3.27;100.00;98224.28;5101361;28;19983;-63
2023/01/26 09:40:52;;;;;;;;;;;;;;;3.39;100.00;98221.81;5100420;28;20349;-63
2023/01/26 09:43:25;;;;;;;;;;;;;;;3.28;100.00;98221.44;5102483;28;20002;-63
2023/01/26 09:45:56;;;;;;;;;;;;;;;3.44;100.00;98224.63;5103811;28;19948;-63
2023/01/26 09:48:28;;;;;;;;;;;;;;;3.20;100.00;98229.59;5101117;28;19980;-63
2023/01/26 09:50:57;;;;;;;;;;;;;;;3.20;100.00;98226.94;5100029;28;19935;-62
2023/01/26 09:53:26;;;;;;;;;;;;;;;3.40;100.00;98228.72;5102787;28;19935;-64
2023/01/26 09:55:54;;;;;;;;;;;;;;;3.62;100.00;98214.19;5103590;28;19987;-64
2023/01/26 09:58:28;;;;;;;;;;;;;;;3.74;100.00;98220.44;5100809;28;19946;-64
2023/01/26 10:00:58;;;;;;;;;;;;;;;3.82;100.00;98217.53;5099556;28;19924;-62
2023/01/26 10:03:28;;;;;;;;;;;;;;;3.72;100.00;98215.34;5102264;28;19943;-63
2023/01/26 10:05:58;;;;;;;;;;;;;;;3.78;100.00;98217.13;5112506;28;19952;-63
2023/01/26 10:08:25;;;;;;;;;;;;;;;3.66;100.00;98205.63;5081891;28;20074;-63
2023/01/26 10:10:53;;;;;;;;;;;;;;;3.81;100.00;98207.97;5098278;28;19996;-63
2023/01/26 10:13:20;;;;;;;;;;;;;;;3.89;100.00;98202.44;5100240;28;19924;-64
2023/01/26 10:15:51;;;;;;;;;;;;;;;3.89;100.00;98204.28;5103002;28;19931;-64
2023/01/26 10:18:19;;;;;;;;;;;;;;;3.75;100.00;98206.19;5100708;28;19999;-63
2023/01/26 10:20:49;;;;;;;;;;;;;;;3.54;100.00;98203.88;5098334;28;19935;-64
2023/01/26 10:23:17;;;;;;;;;;;;;;;3.61;100.00;98194.09;5100918;28;19952;-65
2023/01/26 10:25:45;;;;;;;;;;;;;;;3.67;100.00;98195.88;5102672;28;20046;-64
2023/01/26 10:28:12;;;;;;;;;;;;;;;3.60;100.00;98200.38;5101527;28;19924;-64
2023/01/26 10:30:39;;;;;;;;;;;;;;;3.39;100.00;98201.50;5099230;28;19970;-64
2023/01/26 10:33:12;;;;;;;;;;;;;;;3.33;100.00;98185.69;5099462;28;19932;-64
2023/01/26 10:35:38;;;;;;;;;;;;;;;3.53;100.00;98194.34;5089652;28;19955;-64
2023/01/26 10:38:26;;;;;;;;;;;;;;;3.43;100.00;98193.97;5102501;28;19959;-63
2023/01/26 10:40:52;;;;;;;;;;;;;;;3.13;100.00;98202.41;5098863;28;19963;-64
2023/01/26 10:43:18;;;;;;;;;;;;;;;3.12;100.00;98200.81;5100462;28;19927;-62
2023/01/26 10:45:45;;;;;;;;;;;;;;;3.15;100.00;98196.94;5102469;28;19928;-63
2023/01/26 10:48:18;;;;;;;;;;;;;;;3.01;100.00;98204.06;5101251;28;19924;-63
2023/01/26 10:50:45;;;;;;;;;;;;;;;2.93;100.00;98191.13;5098948;28;19948;-62
2023/01/26 10:53:16;;;;;;;;;;;;;;;3.21;100.00;98194.28;5100098;28;19955;-64
2023/01/26 10:55:42;;;;;;;;;;;;;;;2.97;100.00;98191.53;5102281;28;19920;-63
2023/01/26 10:58:23;;;;;;;;;;;;;;;2.72;100.00;98194.81;5101222;28;20256;-63
2023/01/26 11:00:55;;;;;;;;;;;;;;;2.91;100.00;98190.50;5097705;28;19947;-63
2023/01/26 11:03:26;;;;;;;;;;;;;;;3.03;100.00;98188.84;5101010;28;20011;-63
2023/01/26 11:06:05;;;;;;;;;;;;;;;3.05;100.00;98181.53;5111644;28;19991;-63
2023/01/26 11:08:33;;;;;;;;;;;;;;;3.07;100.00;98184.78;5098381;28;19931;-63
2023/01/26 11:10:59;;;;;;;;;;;;;;;3.28;100.00;98181.84;5098292;28;19924;-63
2023/01/26 11:13:26;;;;;;;;;;;;;;;3.44;100.00;98182.38;5101688;28;19987;-63
2023/01/26 11:16:01;;;;;;;;;;;;;;;3.56;100.00;98181.50;5102150;28;19947;-63
2023/01/26 11:18:32;;;;;;;;;;;;;;;3.37;100.00;98174.50;5098193;28;19955;-63
2023/01/26 11:21:00;;;;;;;;;;;;;;;3.48;100.00;98183.59;5098174;28;19924;-63
2023/01/26 11:23:33;;;;;;;;;;;;;;;3.41;100.00;98177.50;5101542;28;19992;-63
2023/01/26 11:26:08;;;;;;;;;;;;;;;3.08;100.00;98169.75;5101681;28;19955;-63
2023/01/26 11:28:42;;;;;;;;;;;;;;;2.98;100.00;98164.91;5098191;28;19984;-63
2023/01/26 11:31:15;;;;;;;;;;;;;;;2.90;100.00;98174.88;5098766;28;19964;-63
2023/01/26 11:33:49;;;;;;;;;;;;;;;3.26;100.00;98159.31;5101687;28;19952;-63
2023/01/26 11:36:22;;;;;;;;;;;;;;;3.17;100.00;98164.03;5104501;28;19923;-63
2023/01/26 11:38:52;;;;;;;;;;;;;;;3.14;100.00;98156.53;5098362;28;19928;-63
2023/01/26 11:41:33;;;;;;;;;;;;;;;3.34;100.00;98158.28;5099882;28;19995;-63
2023/01/26 11:44:21;;;;;;;;;;;;;;;3.56;100.00;98151.66;5101565;28;19924;-63
2023/01/26 11:46:53;;;;;;;;;;;;;;;3.70;100.00;98140.00;5098077;28;19924;-63
2023/01/26 11:49:27;;;;;;;;;;;;;;;3.50;100.00;98145.38;5100265;28;19931;-63
2023/01/26 11:52:00;;;;;;;;;;;;;;;3.68;100.00;98142.03;5101401;28;19924;-63
2023/01/26 11:54:34;;;;;;;;;;;;;;;3.64;100.00;98143.47;5097915;28;20005;-63
2023/01/26 11:57:07;;;;;;;;;;;;;;;3.67;100.00;98140.41;5097811;28;19921;-63
2023/01/26 11:59:36;;;;;;;;;;;;;;;3.69;100.00;98133.88;5097926;28;19931;-63
2023/01/26 12:02:05;;;;;;;;;;;;;;;3.82;100.00;98130.34;5097931;28;19952;-63
2023/01/26 12:04:35;;;;;;;;;;;;;;;3.88;100.00;98126.84;5097997;28;19928;-63
2023/01/26 12:07:05;;;;;;;;;;;;;;;3.94;100.00;98135.75;5101517;28;19952;-63
2023/01/26 12:09:35;;;;;;;;;;;;;;;3.92;100.00;98133.34;5097632;28;19935;-63
2023/01/26 12:12:06;;;;;;;;;;;;;;;3.98;100.00;98123.72;5097663;28;20011;-63
2023/01/26 12:14:36;;;;;;;;;;;;;;;3.88;100.00;98132.13;5097544;28;19932;-62
2023/01/26 12:17:13;;;;;;;;;;;;;;;3.83;100.00;98129.34;5097719;28;19928;-63
2023/01/26 12:19:44;;;;;;;;;;;;;;;3.70;100.00;98126.78;5089398;28;19980;-63
2023/01/26 12:22:13;;;;;;;;;;;;;;;3.56;100.00;98119.97;5089197;28;19951;-63
2023/01/26 12:24:43;;;;;;;;;;;;;;;3.59;100.00;98119.56;5089261;28;20398;-63
2023/01/26 12:27:14;;;;;;;;;;;;;;;3.64;100.00;98117.06;5088984;28;20440;-63
2023/01/26 12:29:44;;;;;;;;;;;;;;;3.61;100.00;98114.88;5089011;28;19925;-62
2023/01/26 12:32:12;;;;;;;;;;;;;;;3.60;100.00;98107.94;5089183;28;19924;-63
2023/01/26 12:34:38;;;;;;;;;;;;;;;3.41;100.00;98114.16;5090309;28;19976;-63
2023/01/26 12:37:14;;;;;;;;;;;;;;;3.30;100.00;98112.22;5082905;28;19975;-63
2023/01/26 12:39:44;;;;;;;;;;;;;;;3.47;100.00;98108.84;5099807;28;20419;-63
2023/01/26 12:42:17;;;;;;;;;;;;;;;3.42;100.00;98105.22;5099602;28;19951;-63
2023/01/26 12:44:44;;;;;;;;;;;;;;;3.57;100.00;98092.53;5097382;28;19991;-63
2023/01/26 12:47:15;;;;;;;;;;;;;;;3.46;100.00;98091.41;5098150;28;19959;-63
2023/01/26 12:49:46;;;;;;;;;;;;;;;3.26;100.00;98086.22;5100738;28;19974;-63
2023/01/26 12:52:17;;;;;;;;;;;;;;;3.15;100.00;98089.56;5098377;28;19953;-64
2023/01/26 12:54:45;;;;;;;;;;;;;;;2.77;100.00;98086.06;5097147;28;19947;-64
2023/01/26 12:57:13;;;;;;;;;;;;;;;2.80;100.00;98087.47;5097987;28;19928;-63
2023/01/26 12:59:40;;;;;;;;;;;;;;;2.97;100.00;98080.72;5100676;28;19965;-63
2023/01/26 13:02:17;;;;;;;;;;;;;;;3.24;100.00;98083.00;5100040;28;19963;-63
2023/01/26 13:04:45;;;;;;;;;;;;;;;3.45;100.00;98086.31;5099478;28;19924;-63
2023/01/26 13:07:26;;;;;;;;;;;;;;;3.37;100.00;98081.31;5104106;28;19924;-63
2023/01/26 13:10:23;;;;;;;;;;;;;;;3.50;100.00;98075.91;5104166;28;19924;-64
2023/01/26 13:12:52;;;;;;;;;;;;;;;3.65;100.00;98079.09;5038285;28;19937;-64
2023/01/26 13:15:20;;;;;;;;;;;;;;;3.78;100.00;98081.59;5087925;28;19956;-63
2023/01/26 13:17:51;;;;;;;;;;;;;;;3.77;100.00;98066.81;5103864;28;19942;-63
2023/01/26 13:20:25;;;;;;;;;;;;;;;3.78;100.00;98071.03;5101729;28;19932;-63
2023/01/26 13:22:52;;;;;;;;;;;;;;;3.81;100.00;98075.88;5100502;28;20011;-64
2023/01/26 13:25:19;;;;;;;;;;;;;;;3.81;100.00;98073.25;5102200;28;19925;-63
2023/01/26 13:27:47;;;;;;;;;;;;;;;3.73;100.00;98071.69;5085576;28;19928;-63
2023/01/26 13:30:28;;;;;;;;;;;;;;;3.81;100.00;98067.97;5102119;28;19952;-63
2023/01/26 13:33:04;;;;;;;;;;;;;;;3.89;100.00;98065.06;5097712;28;19986;-63
2023/01/26 13:35:31;;;;;;;;;;;;;;;3.78;100.00;98069.22;5103592;28;20019;-63
2023/01/26 13:38:00;;;;;;;;;;;;;;;3.20;100.00;98065.16;5103567;28;20005;-63
2023/01/26 13:40:30;;;;;;;;;;;;;;;3.31;100.00;98071.59;5100067;28;20117;-63